Time;durP1;ratioP1;P1;durP2;ratioP2;P2;SDS_P1;SDS_P2;PMS_P1;PMS_P2;Temp;Humidity;BMP_temperature;BMP_pressure;BME280_temperature;BME280_humidity;BME280_pressure;Samples;Min_cycle;Max_cycle;Signal;HPM_P1;HPM_P2
2023/07/03 00:03:13;;;;;;;18.58;3.60;;;;;;;16.77;72.61;100127.75;8298206;28;20045;-60
2023/07/03 00:07:14;;;;;;;15.15;3.70;;;;;;;16.72;72.54;100133.78;8300289;28;20042;-59
2023/07/03 00:11:14;;;;;;;17.02;3.75;;;;;;;16.64;72.83;100131.13;8300082;28;20069;-59
2023/07/03 00:15:15;;;;;;;19.77;4.22;;;;;;;16.50;74.20;100131.16;8299998;28;20038;-59
2023/07/03 00:19:16;;;;;;;16.20;3.67;;;;;;;16.41;74.29;100133.06;8302022;28;20092;-59
2023/07/03 00:23:16;;;;;;;19.15;3.72;;;;;;;16.31;74.63;100135.22;8302566;28;20041;-59
2023/07/03 00:27:18;;;;;;;15.20;3.45;;;;;;;16.34;74.62;100131.25;8300898;28;20585;-59
2023/07/03 00:31:18;;;;;;;17.05;3.83;;;;;;;16.28;74.79;100132.88;8300610;28;20066;-59
2023/07/03 00:35:20;;;;;;;16.52;3.50;;;;;;;16.32;74.67;100134.22;8298567;28;20048;-59
2023/07/03 00:39:21;;;;;;;23.75;5.07;;;;;;;16.36;74.39;100126.47;8300178;28;20069;-59
2023/07/03 00:43:21;;;;;;;26.25;3.67;;;;;;;16.37;74.98;100136.34;8297585;28;20029;-59
2023/07/03 00:47:23;;;;;;;19.55;3.97;;;;;;;16.37;75.15;100125.44;8297738;28;20057;-59
2023/07/03 00:51:24;;;;;;;16.42;3.55;;;;;;;16.36;75.19;100129.22;8299275;28;20402;-59
2023/07/03 00:55:25;;;;;;;20.17;4.30;;;;;;;16.35;75.73;100116.63;8305884;28;20544;-59
2023/07/03 00:59:26;;;;;;;15.10;3.65;;;;;;;16.21;76.04;100120.16;8306008;28;20165;-59
2023/07/03 01:03:35;;;;;;;16.67;3.65;;;;;;;16.15;76.69;100129.09;8304044;28;20057;-59
2023/07/03 01:07:37;;;;;;;24.92;3.85;;;;;;;16.12;77.34;100126.72;8306051;28;20045;-59
2023/07/03 01:11:41;;;;;;;17.77;3.73;;;;;;;16.16;77.14;100128.06;8305932;28;20103;-59
2023/07/03 01:15:44;;;;;;;15.25;3.47;;;;;;;16.01;78.03;100119.84;8307598;28;20038;-59
2023/07/03 01:19:46;;;;;;;24.30;3.95;;;;;;;15.86;78.67;100120.84;8297999;28;20035;-59
2023/07/03 01:24:00;;;;;;;22.88;3.83;;;;;;;15.75;79.23;100122.13;8273032;28;20384;-59
2023/07/03 01:28:05;;;;;;;24.33;4.35;;;;;;;15.77;79.48;100126.38;8299407;28;20081;-59
2023/07/03 01:32:09;;;;;;;20.15;3.70;;;;;;;15.79;79.77;100130.81;8300888;28;20038;-59
2023/07/03 01:36:12;;;;;;;20.67;3.25;;;;;;;15.80;79.18;100127.91;8306964;28;20042;-59
2023/07/03 01:40:17;;;;;;;20.70;3.83;;;;;;;15.93;78.26;100121.81;8303429;28;20046;-59
2023/07/03 01:44:19;;;;;;;21.33;3.97;;;;;;;16.01;77.23;100106.22;8304938;28;20415;-59
2023/07/03 01:48:19;;;;;;;22.70;4.70;;;;;;;15.99;77.33;100112.88;8307055;28;20038;-59
2023/07/03 01:52:24;;;;;;;19.98;3.72;;;;;;;15.94;78.13;100108.00;8299614;28;20045;-59
2023/07/03 01:56:26;;;;;;;;;;;;;;;15.90;78.39;100105.81;8274256;28;20125;-59
2023/07/03 02:00:38;;;;;;;14.30;4.03;;;;;;;15.80;78.69;100108.81;8271355;28;19940;-59
2023/07/03 02:04:46;;;;;;;21.55;3.75;;;;;;;15.77;79.40;100094.69;8310687;28;20388;-59
2023/07/03 02:08:49;;;;;;;22.55;4.05;;;;;;;15.79;79.42;100093.47;8312986;28;20410;-59
2023/07/03 02:12:49;;;;;;;24.02;4.53;;;;;;;15.79;78.68;100098.09;8311427;28;20053;-59
2023/07/03 02:16:54;;;;;;;26.58;4.05;;;;;;;15.84;78.29;100090.19;8312874;28;20049;-59
2023/07/03 02:20:55;;;;;;;25.27;4.35;;;;;;;15.85;78.45;100090.00;8311697;28;20461;-59
2023/07/03 02:24:55;;;;;;;18.00;4.30;;;;;;;15.94;78.12;100096.22;8311454;28;20325;-59
2023/07/03 02:28:56;;;;;;;24.98;3.50;;;;;;;15.91;77.90;100089.28;8312352;28;20045;-61
2023/07/03 02:32:56;;;;;;;18.70;3.50;;;;;;;15.90;77.92;100095.78;8306071;28;20047;-61
2023/07/03 02:36:59;;;;;;;22.40;4.25;;;;;;;15.90;78.39;100094.91;8307728;28;20037;-61
2023/07/03 02:40:59;;;;;;;21.88;4.40;;;;;;;15.80;78.67;100088.88;8312154;28;20044;-61
2023/07/03 02:45:00;;;;;;;17.30;3.72;;;;;;;15.73;79.01;100089.63;8309206;28;20125;-64
2023/07/03 02:49:03;;;;;;;18.25;4.22;;;;;;;15.74;79.08;100091.28;8311990;28;20037;-61
2023/07/03 02:53:04;;;;;;;20.27;3.65;;;;;;;15.68;79.61;100089.31;8308871;28;20036;-61
2023/07/03 02:57:06;;;;;;;19.20;3.80;;;;;;;15.66;79.94;100085.94;8310527;28;20062;-61
2023/07/03 03:01:07;;;;;;;16.98;4.07;;;;;;;15.69;80.00;100099.19;8307138;28;20042;-62
2023/07/03 03:05:09;;;;;;;25.10;4.13;;;;;;;15.58;80.74;100096.91;8311020;28;20529;-61
2023/07/03 03:09:11;;;;;;;17.98;4.35;;;;;;;15.52;80.93;100091.31;8309047;28;20622;-61
2023/07/03 03:13:12;;;;;;;18.27;3.70;;;;;;;15.66;80.90;100099.56;8311872;28;20047;-61
2023/07/03 03:17:14;;;;;;;16.20;3.90;;;;;;;15.07;84.78;100092.13;8308214;28;20044;-61
2023/07/03 03:21:15;;;;;;;17.67;3.50;;;;;;;14.75;88.07;100089.59;8311153;28;20487;-61
2023/07/03 03:25:18;;;;;;;26.58;4.25;;;;;;;14.61;88.21;100084.88;8308941;28;20042;-61
2023/07/03 03:29:18;;;;;;;16.60;4.25;;;;;;;14.64;89.05;100089.16;8309250;28;20033;-61
2023/07/03 03:33:19;;;;;;;15.77;3.40;;;;;;;14.65;90.44;100094.41;8305325;28;20033;-61
2023/07/03 03:37:20;;;;;;;25.80;3.75;;;;;;;15.19;85.80;100090.69;8309430;28;20061;-61
2023/07/03 03:41:20;;;;;;;24.95;4.53;;;;;;;15.34;84.53;100083.44;8308178;28;20038;-61
2023/07/03 03:45:21;;;;;;;23.33;3.65;;;;;;;15.46;83.79;100087.47;8310485;28;20068;-61
2023/07/03 03:49:22;;;;;;;16.65;3.15;;;;;;;15.53;84.00;100084.84;8307810;28;20092;-61
2023/07/03 03:53:23;;;;;;;18.95;4.70;;;;;;;15.67;83.88;100074.00;8310001;28;20120;-61
2023/07/03 03:57:24;;;;;;;20.77;4.28;;;;;;;15.70;83.01;100083.69;8308172;28;20045;-61
2023/07/03 04:01:24;;;;;;;26.73;4.45;;;;;;;15.71;83.60;100086.22;8290163;28;20081;-61
2023/07/03 04:05:25;;;;;;;18.02;3.83;;;;;;;15.86;84.20;100085.41;8298147;28;20038;-61
2023/07/03 04:09:25;;;;;;;24.65;4.90;;;;;;;15.91;84.13;100080.22;8307335;28;20045;-61
2023/07/03 04:13:26;;;;;;;19.67;4.25;;;;;;;15.94;83.93;100079.88;8300988;28;20179;-61
2023/07/03 04:17:26;;;;;;;23.38;4.82;;;;;;;16.09;84.06;100083.47;8305487;28;20447;-61
2023/07/03 04:21:26;;;;;;;24.08;3.80;;;;;;;16.18;84.94;100087.81;8298768;28;20037;-61
2023/07/03 04:25:27;;;;;;;23.42;4.40;;;;;;;16.28;84.35;100082.94;8304397;28;20033;-61
2023/07/03 04:29:27;;;;;;;19.80;4.90;;;;;;;16.41;84.01;100083.13;8294849;28;20037;-61
2023/07/03 04:33:28;;;;;;;23.80;4.90;;;;;;;16.43;84.54;100087.38;8298181;28;20361;-61
2023/07/03 04:37:29;;;;;;;37.88;5.65;;;;;;;16.49;84.08;100089.34;8303280;28;20068;-61
2023/07/03 04:41:30;;;;;;;24.92;4.90;;;;;;;16.51;84.32;100090.03;8303827;28;20626;-61
2023/07/03 04:45:31;;;;;;;23.67;4.22;;;;;;;16.55;84.45;100090.47;8305181;28;20413;-61
2023/07/03 04:49:33;;;;;;;26.83;4.47;;;;;;;16.61;84.15;100095.19;8302094;28;20044;-62
2023/07/03 04:53:39;;;;;;;26.52;5.28;;;;;;;16.72;84.62;100097.44;8301116;28;20045;-61
2023/07/03 04:57:42;;;;;;;23.45;4.50;;;;;;;16.78;83.57;100102.13;8302028;28;20107;-61
2023/07/03 05:01:42;;;;;;;25.02;4.38;;;;;;;16.84;83.63;100102.19;8301643;28;20125;-61
2023/07/03 05:05:43;;;;;;;16.77;4.53;;;;;;;16.87;83.98;100104.56;8304183;28;20053;-61
2023/07/03 05:09:43;;;;;;;23.10;4.88;;;;;;;16.96;83.08;100105.31;8283600;28;20042;-61
2023/07/03 05:13:44;;;;;;;19.20;4.82;;;;;;;16.96;83.11;100099.84;8271053;28;20045;-61
2023/07/03 05:17:49;;;;;;;21.30;4.97;;;;;;;17.06;83.14;100105.84;8294917;28;20053;-61
2023/07/03 05:21:49;;;;;;;20.17;4.40;;;;;;;17.79;81.58;100103.72;8294963;28;20042;-59
2023/07/03 05:25:49;;;;;;;22.92;4.38;;;;;;;17.48;80.97;100111.41;8298223;28;20059;-61
2023/07/03 05:29:50;;;;;;;15.68;3.88;;;;;;;17.60;80.92;100121.59;8294775;28;20038;-62
2023/07/03 05:33:50;;;;;;;22.92;3.97;;;;;;;17.58;79.93;100120.97;8293804;28;20038;-61
2023/07/03 05:37:51;;;;;;;25.98;4.10;;;;;;;17.68;80.56;100117.91;8303677;28;20057;-58
2023/07/03 05:41:51;;;;;;;17.52;4.80;;;;;;;17.73;79.49;100126.38;8286131;28;20068;-59
2023/07/03 05:45:52;;;;;;;21.02;4.95;;;;;;;17.84;78.99;100128.56;8301453;28;20041;-60
2023/07/03 05:49:53;;;;;;;20.00;4.10;;;;;;;17.82;78.58;100130.66;8307067;28;20246;-59
2023/07/03 05:53:53;;;;;;;29.02;4.78;;;;;;;17.87;78.63;100128.16;8310637;28;20047;-60
2023/07/03 05:57:54;;;;;;;26.75;5.15;;;;;;;17.94;78.17;100140.03;8307341;28;20044;-60
2023/07/03 06:01:56;;;;;;;20.88;4.35;;;;;;;18.08;77.66;100136.34;8312153;28;20042;-59
2023/07/03 06:05:56;;;;;;;15.15;4.43;;;;;;;18.10;77.84;100147.94;8322992;28;20041;-60
2023/07/03 06:09:57;;;;;;;20.50;4.10;;;;;;;18.09;77.82;100146.28;8300139;28;20095;-59
2023/07/03 06:13:57;;;;;;;22.48;4.75;;;;;;;18.11;78.32;100141.44;8309292;28;20266;-61
2023/07/03 06:17:59;;;;;;;24.40;4.05;;;;;;;18.02;78.68;100142.59;8304592;28;20446;-59
2023/07/03 06:22:00;;;;;;;26.38;4.82;;;;;;;17.88;79.17;100143.56;8323486;28;20395;-60
2023/07/03 06:26:00;;;;;;;26.42;4.60;;;;;;;18.58;78.21;100146.22;8321663;28;20064;-62
2023/07/03 06:30:01;;;;;;;99.47;25.88;;;;;;;20.58;74.36;100143.38;8307082;28;20038;-57
2023/07/03 06:34:03;;;;;;;43.92;11.82;;;;;;;20.61;71.19;100148.44;8307054;28;20060;-54
2023/07/03 06:38:03;;;;;;;60.88;18.23;;;;;;;20.27;72.06;100154.19;8305375;28;20042;-58
2023/07/03 06:42:05;;;;;;;28.33;7.65;;;;;;;19.46;74.85;100147.94;8320963;28;20048;-58
2023/07/03 06:46:10;;;;;;;22.60;5.13;;;;;;;19.10;75.90;100154.75;8305698;28;20124;-58
2023/07/03 06:50:11;;;;;;;28.30;5.00;;;;;;;18.93;77.30;100150.63;8306612;28;20130;-59
2023/07/03 06:54:11;;;;;;;20.70;4.47;;;;;;;18.94;77.49;100153.19;8302249;28;20045;-59
2023/07/03 06:58:12;;;;;;;19.67;5.35;;;;;;;18.85;77.87;100161.78;8312848;28;20553;-58
2023/07/03 07:02:18;;;;;;;19.55;4.85;;;;;;;19.10;76.63;100162.97;8302380;28;20053;-58
2023/07/03 07:06:22;;;;;;;19.40;4.93;;;;;;;19.20;75.43;100175.25;8305632;28;20546;-58
2023/07/03 07:10:24;;;;;;;23.80;7.10;;;;;;;19.26;76.05;100160.75;8306065;28;20041;-58
2023/07/03 07:14:24;;;;;;;23.95;5.40;;;;;;;19.52;75.89;100170.09;8305733;28;20414;-58
2023/07/03 07:18:25;;;;;;;24.45;5.85;;;;;;;19.53;74.73;100153.44;8305782;28;20037;-58
2023/07/03 07:22:26;;;;;;;17.40;4.80;;;;;;;19.99;73.40;100159.00;8305990;28;20175;-57
2023/07/03 07:26:33;;;;;;;17.98;4.53;;;;;;;20.00;73.26;100157.97;8303440;28;20042;-58
2023/07/03 07:30:36;;;;;;;15.75;4.35;;;;;;;19.94;70.10;100145.09;8308494;28;20132;-58
2023/07/03 07:34:37;;;;;;;18.40;4.80;;;;;;;20.13;72.11;100163.50;8304310;28;20105;-57
2023/07/03 07:38:37;;;;;;;24.77;5.40;;;;;;;19.91;71.51;100159.22;8319511;28;20053;-58
2023/07/03 07:42:38;;;;;;;18.75;4.00;;;;;;;20.04;69.16;100153.75;8308588;28;20084;-57
2023/07/03 07:46:39;;;;;;;18.45;4.10;;;;;;;20.38;70.45;100145.31;8304767;28;20172;-57
2023/07/03 07:50:39;;;;;;;35.05;9.02;;;;;;;21.03;68.13;100156.19;8305773;28;20053;-58
2023/07/03 07:54:39;;;;;;;24.00;5.18;;;;;;;21.14;64.42;100152.78;8304917;28;20038;-58
2023/07/03 07:58:40;;;;;;;21.45;5.75;;;;;;;21.72;63.02;100162.66;8306210;28;20041;-58
2023/07/03 08:02:40;;;;;;;31.00;5.13;;;;;;;21.59;63.31;100165.44;8302864;28;20042;-62
2023/07/03 08:06:41;;;;;;;24.75;4.90;;;;;;;21.55;60.52;100166.97;8306354;28;20038;-62
2023/07/03 08:10:41;;;;;;;14.63;3.22;;;;;;;21.34;60.64;100159.03;8304358;28;20568;-62
2023/07/03 08:14:42;;;;;;;17.27;4.30;;;;;;;21.33;60.98;100162.84;8306934;28;20038;-62
2023/07/03 08:18:43;;;;;;;13.77;3.63;;;;;;;21.23;60.98;100165.22;8303762;28;20041;-62
2023/07/03 08:22:43;;;;;;;18.27;4.03;;;;;;;21.10;62.68;100168.84;8304213;28;20033;-62
2023/07/03 08:26:48;;;;;;;16.90;3.78;;;;;;;21.63;60.65;100163.97;8305470;28;20128;-62
2023/07/03 08:30:49;;;;;;;13.18;3.80;;;;;;;21.55;60.77;100161.47;8303459;28;20037;-62
2023/07/03 08:34:50;;;;;;;18.30;3.80;;;;;;;21.47;61.05;100164.44;8303398;28;20042;-62
2023/07/03 08:38:50;;;;;;;12.52;3.35;;;;;;;21.44;60.29;100186.94;8303285;28;20503;-62
2023/07/03 08:42:54;;;;;;;12.53;3.10;;;;;;;21.68;60.91;100179.81;8304462;28;20049;-62
2023/07/03 08:46:57;;;;;;;14.10;3.22;;;;;;;22.16;59.36;100175.47;8300906;28;20516;-58
2023/07/03 08:51:00;;;;;;;12.55;3.13;;;;;;;22.14;57.76;100186.72;8277090;28;20552;-61
2023/07/03 08:55:03;;;;;;;14.18;4.03;;;;;;;22.40;58.43;100188.44;8269019;28;20038;-62
2023/07/03 08:59:04;;;;;;;12.85;3.83;;;;;;;22.40;58.03;100189.28;8273111;28;20039;-62
2023/07/03 09:03:19;;;;;;;12.05;3.33;;;;;;;22.90;56.32;100184.56;8294885;28;20056;-65
2023/07/03 09:07:30;;;;;;;13.55;3.65;;;;;;;22.45;56.41;100192.19;8302495;28;20033;-65
2023/07/03 09:11:34;;;;;;;11.50;3.17;;;;;;;22.60;57.53;100201.00;8296302;28;20096;-65
2023/07/03 09:15:38;;;;;;;;;;;;;;;22.43;58.24;100191.59;8313041;28;20029;-65
2023/07/03 09:19:43;;;;;;;13.38;3.70;;;;;;;22.70;56.55;100190.31;8309930;28;19944;-65
2023/07/03 09:23:58;;;;;;;20.77;3.60;;;;;;;22.28;56.74;100185.56;8307409;28;20405;-66
2023/07/03 09:28:03;;;;;;;15.65;3.45;;;;;;;22.20;58.77;100207.03;8306522;28;20098;-65
2023/07/03 09:32:04;;;;;;;10.02;2.85;;;;;;;22.20;56.36;100199.59;8305179;28;20041;-65
2023/07/03 09:36:25;;;;;;;7.03;2.40;;;;;;;21.73;56.23;100213.88;8308386;28;20092;-65
2023/07/03 09:40:29;;;;;;;18.25;3.00;;;;;;;21.73;58.66;100202.84;8303536;28;20586;-65
2023/07/03 09:44:29;;;;;;;;;;;;;;;21.73;56.92;100211.09;8303740;28;20036;-65
2023/07/03 09:48:31;;;;;;;13.73;3.05;;;;;;;21.38;57.37;100215.31;8309132;28;19917;-65
2023/07/03 09:52:32;;;;;;;13.80;3.88;;;;;;;21.08;58.10;100220.44;8307062;28;20037;-65
2023/07/03 09:56:32;;;;;;;8.02;3.22;;;;;;;21.37;58.94;100213.59;8306761;28;20042;-66
2023/07/03 10:00:33;;;;;;;13.05;3.35;;;;;;;22.35;57.95;100219.41;8304406;28;20041;-65
2023/07/03 10:04:41;;;;;;;14.02;3.20;;;;;;;23.27;57.02;100213.06;8298685;28;20050;-65
2023/07/03 10:08:46;;;;;;;13.38;3.90;;;;;;;24.20;54.11;100198.63;8273072;28;20085;-66
2023/07/03 10:13:12;;;;;;;14.13;3.45;;;;;;;22.76;56.00;100203.19;8274896;28;20041;-66
2023/07/03 10:17:15;;;;;;;8.13;3.20;;;;;;;21.95;57.87;100206.13;8297552;28;20050;-66
2023/07/03 10:21:20;;;;;;;11.25;3.67;;;;;;;21.38;59.15;100209.81;8308872;28;20048;-66
2023/07/03 10:25:26;;;;;;;13.73;3.58;;;;;;;21.49;58.88;100217.34;8288843;28;20035;-66
2023/07/03 10:29:32;;;;;;;9.98;2.95;;;;;;;24.88;53.39;100199.81;8275165;28;20428;-66
2023/07/03 10:33:40;;;;;;;10.20;3.45;;;;;;;25.84;49.80;100192.56;8299154;28;20064;-65
2023/07/03 10:37:50;;;;;;;11.43;3.95;;;;;;;25.45;50.09;100198.94;8306089;28;20041;-65
2023/07/03 10:41:57;;;;;;;12.85;5.72;;;;;;;24.40;52.07;100194.47;8297650;28;20088;-65
2023/07/03 10:46:00;;;;;;;107.70;38.03;;;;;;;26.18;52.87;100194.34;8301854;28;20294;-58
2023/07/03 10:50:03;;;;;;;26.08;9.35;;;;;;;26.00;49.50;100202.84;8321268;28;20493;-60
2023/07/03 10:54:13;;;;;;;10.67;4.13;;;;;;;24.82;51.25;100198.00;8304157;28;20099;-62
2023/07/03 10:58:26;;;;;;;34.30;8.68;;;;;;;23.45;53.14;100205.59;8306103;28;20390;-66
2023/07/03 11:02:54;;;;;;;80.90;22.45;;;;;;;23.90;54.64;100193.09;8292111;28;20049;-59
2023/07/03 11:07:04;;;;;;;51.97;16.58;;;;;;;23.88;55.02;100191.66;8287297;28;20076;-67
2023/07/03 11:11:38;;;;;;;27.08;9.43;;;;;;;22.79;54.00;100188.97;8299389;28;20042;-66
2023/07/03 11:15:58;;;;;;;24.85;8.20;;;;;;;22.71;55.41;100186.47;8301056;28;20042;-67
2023/07/03 11:20:20;;;;;;;15.43;4.75;;;;;;;23.25;55.19;100198.66;8303658;28;20041;-65
2023/07/03 11:24:31;;;;;;;16.55;3.55;;;;;;;23.53;53.75;100202.53;8302879;28;20037;-65
2023/07/03 11:28:35;;;;;;;17.88;3.58;;;;;;;22.78;54.36;100203.78;8309153;28;20378;-66
2023/07/03 11:32:37;;;;;;;11.52;3.92;;;;;;;22.77;55.26;100202.13;8301730;28;20374;-66
2023/07/03 11:36:44;;;;;;;42.88;7.40;;;;;;;24.32;52.95;100202.25;8303982;28;20043;-66
2023/07/03 11:41:02;;;;;;;12.60;4.57;;;;;;;25.55;50.17;100199.16;8305402;28;20081;-67
2023/07/03 11:45:05;;;;;;;11.13;3.33;;;;;;;24.93;50.72;100188.88;8300328;28;20589;-66
2023/07/03 11:49:11;;;;;;;14.68;4.50;;;;;;;25.88;49.58;100196.50;8321460;28;20425;-67
2023/07/03 11:53:28;;;;;;;11.70;3.30;;;;;;;26.95;46.06;100200.09;8304865;28;20148;-67
2023/07/03 11:57:36;;;;;;;21.05;4.28;;;;;;;25.44;49.18;100194.50;8280016;28;20073;-65
2023/07/03 12:01:37;;;;;;;19.15;4.13;;;;;;;24.10;51.69;100182.66;8303393;28;20045;-65
2023/07/03 12:05:49;;;;;;;12.80;3.58;;;;;;;23.38;53.17;100204.00;8303428;28;20092;-66
2023/07/03 12:09:50;;;;;;;10.18;3.30;;;;;;;23.07;54.28;100197.56;8302283;28;20235;-66
2023/07/03 12:13:54;;;;;;;13.75;4.57;;;;;;;22.76;55.02;100205.94;8305329;28;20121;-65
2023/07/03 12:18:01;;;;;;;8.27;3.03;;;;;;;22.85;55.28;100193.56;8302806;28;20048;-65
2023/07/03 12:22:02;;;;;;;14.00;4.55;;;;;;;22.81;57.02;100203.34;8304903;28;20044;-66
2023/07/03 12:26:07;;;;;;;18.38;4.22;;;;;;;22.82;56.21;100198.69;8301408;28;20042;-65
2023/07/03 12:30:11;;;;;;;6.90;3.47;;;;;;;23.63;55.27;100199.25;8300906;28;20451;-66
2023/07/03 12:34:12;;;;;;;30.52;4.88;;;;;;;23.67;53.08;100194.94;8301227;28;20442;-65
2023/07/03 12:38:13;;;;;;;10.93;4.40;;;;;;;23.92;53.21;100201.16;8302558;28;20350;-65
2023/07/03 12:42:22;;;;;;;13.32;4.32;;;;;;;23.63;54.51;100207.53;8303762;28;20272;-64
2023/07/03 12:46:32;;;;;;;23.90;4.38;;;;;;;23.50;54.51;100204.91;8302426;28;20563;-64
2023/07/03 12:50:44;;;;;;;14.80;4.85;;;;;;;23.92;55.25;100203.91;8301431;28;20175;-67
2023/07/03 12:54:45;;;;;;;13.48;4.13;;;;;;;24.04;54.18;100211.22;8297127;28;20136;-67
2023/07/03 12:58:45;;;;;;;8.32;3.72;;;;;;;24.14;53.90;100185.75;8304735;28;20565;-66
2023/07/03 13:02:46;;;;;;;12.48;3.70;;;;;;;24.32;54.03;100189.31;8298512;28;20084;-64
2023/07/03 13:06:46;;;;;;;8.10;4.20;;;;;;;24.36;53.83;100187.75;8302636;28;20050;-64
2023/07/03 13:11:03;;;;;;;10.07;4.38;;;;;;;24.24;52.83;100172.22;8302986;28;20471;-63
2023/07/03 13:15:11;;;;;;;12.10;3.92;;;;;;;24.25;54.25;100184.97;8303390;28;20041;-64
2023/07/03 13:19:25;;;;;;;8.95;3.47;;;;;;;24.07;52.19;100182.28;8304507;28;20034;-64
2023/07/03 13:23:29;;;;;;;10.15;3.40;;;;;;;23.97;53.40;100187.53;8299851;28;20224;-63
2023/07/03 13:27:29;;;;;;;6.90;3.63;;;;;;;24.15;53.68;100176.41;8302692;28;20285;-63
2023/07/03 13:31:32;;;;;;;8.52;3.50;;;;;;;24.41;51.91;100173.19;8296739;28;20038;-63
2023/07/03 13:35:38;;;;;;;20.67;4.28;;;;;;;24.29;51.63;100175.09;8301128;28;20025;-63
2023/07/03 13:39:38;;;;;;;9.10;3.63;;;;;;;24.07;52.64;100172.06;8295678;28;20527;-63
2023/07/03 13:43:39;;;;;;;9.40;3.75;;;;;;;23.84;52.72;100165.56;8302376;28;20427;-61
2023/07/03 13:47:39;;;;;;;7.38;3.55;;;;;;;23.82;53.07;100173.28;8299685;28;20037;-61
2023/07/03 13:51:41;;;;;;;11.65;3.75;;;;;;;24.10;52.83;100159.69;8302262;28;20261;-61
2023/07/03 13:55:42;;;;;;;10.88;4.15;;;;;;;24.26;52.42;100159.00;8300911;28;20096;-60
2023/07/03 13:59:42;;;;;;;12.90;3.75;;;;;;;23.98;52.95;100156.06;8302354;28;20046;-61
2023/07/03 14:03:42;;;;;;;9.37;3.87;;;;;;;23.91;53.35;100149.78;8305464;28;20172;-61
2023/07/03 14:07:43;;;;;;;13.80;4.35;;;;;;;23.84;54.09;100154.53;8306100;28;20285;-61
2023/07/03 14:11:43;;;;;;;11.20;4.20;;;;;;;23.77;54.64;100149.13;8304476;28;20042;-63
2023/07/03 14:15:44;;;;;;;17.17;5.85;;;;;;;23.65;55.60;100155.66;8307993;28;20132;-63
2023/07/03 14:19:44;;;;;;;12.30;4.60;;;;;;;23.49;55.45;100150.81;8306158;28;20049;-63
2023/07/03 14:23:45;;;;;;;15.27;4.80;;;;;;;23.64;55.08;100159.50;8307120;28;20128;-63
2023/07/03 14:27:45;;;;;;;17.33;4.45;;;;;;;23.99;54.35;100146.69;8307323;28;20135;-63
2023/07/03 14:31:45;;;;;;;17.60;4.70;;;;;;;23.92;54.41;100146.78;8303758;28;20121;-63
2023/07/03 14:35:46;;;;;;;10.15;4.82;;;;;;;24.00;55.39;100148.38;8303848;28;20042;-63
2023/07/03 14:39:47;;;;;;;16.95;5.20;;;;;;;24.15;55.45;100129.44;8307347;28;20053;-61
2023/07/03 14:43:48;;;;;;;14.48;5.45;;;;;;;24.38;55.37;100132.22;8303457;28;20044;-62
2023/07/03 14:47:48;;;;;;;14.52;4.68;;;;;;;24.41;55.38;100134.50;8304844;28;20046;-62
2023/07/03 14:51:49;;;;;;;11.13;5.57;;;;;;;24.22;54.92;100119.13;8300270;28;20068;-62
2023/07/03 14:55:53;;;;;;;14.23;5.60;;;;;;;24.23;55.56;100116.13;8298965;28;20042;-62
2023/07/03 14:59:53;;;;;;;13.70;5.25;;;;;;;24.43;54.41;100104.72;8294090;28;20041;-64
2023/07/03 15:03:54;;;;;;;14.80;5.35;;;;;;;24.60;56.16;100116.72;8280163;28;20038;-64
2023/07/03 15:07:55;;;;;;;11.60;5.43;;;;;;;24.53;55.35;100105.81;8267302;28;20439;-64
2023/07/03 15:11:55;;;;;;;12.75;5.15;;;;;;;24.13;55.42;100109.50;8296500;28;20128;-65
2023/07/03 15:15:56;;;;;;;13.13;6.15;;;;;;;23.93;56.28;100108.94;8295215;28;20052;-64
2023/07/03 15:19:57;;;;;;;13.18;6.00;;;;;;;24.07;56.13;100102.16;8300134;28;20045;-64
2023/07/03 15:23:58;;;;;;;14.20;6.45;;;;;;;24.58;55.73;100102.31;8301961;28;20046;-64
2023/07/03 15:27:58;;;;;;;15.70;6.85;;;;;;;24.55;55.59;100106.38;8284644;28;20046;-62
2023/07/03 15:31:58;;;;;;;19.95;7.63;;;;;;;24.74;56.30;100099.66;8284834;28;20094;-62
2023/07/03 15:36:00;;;;;;;15.73;7.20;;;;;;;24.70;55.49;100089.34;8300212;28;20037;-62
2023/07/03 15:40:00;;;;;;;18.25;7.82;;;;;;;24.53;55.39;100082.84;8303764;28;20040;-62
2023/07/03 15:44:01;;;;;;;16.67;7.20;;;;;;;24.30;55.57;100082.81;8301290;28;20037;-62
2023/07/03 15:48:02;;;;;;;13.27;7.07;;;;;;;24.34;56.23;100078.53;8300819;28;20044;-62
2023/07/03 15:52:04;;;;;;;14.60;6.55;;;;;;;24.33;55.66;100085.09;8300878;28;20515;-62
2023/07/03 15:56:11;;;;;;;13.30;6.88;;;;;;;24.45;55.20;100081.28;8301840;28;20440;-62
2023/07/03 16:00:12;;;;;;;11.88;6.32;;;;;;;24.17;54.98;100089.44;8298607;28;20053;-64
2023/07/03 16:04:12;;;;;;;12.82;6.25;;;;;;;24.13;56.00;100087.41;8302049;28;20057;-64
2023/07/03 16:08:13;;;;;;;13.38;6.55;;;;;;;24.34;55.97;100084.06;8299067;28;20510;-64
2023/07/03 16:12:14;;;;;;;10.77;6.00;;;;;;;24.33;55.80;100072.13;8303002;28;20703;-64
2023/07/03 16:16:18;;;;;;;16.00;6.07;;;;;;;24.44;56.26;100078.75;8299404;28;20662;-64
2023/07/03 16:20:19;;;;;;;12.57;6.57;;;;;;;24.40;54.97;100077.56;8298926;28;20144;-62
2023/07/03 16:24:19;;;;;;;11.93;5.72;;;;;;;24.23;55.79;100071.06;8301118;28;20049;-62
2023/07/03 16:28:19;;;;;;;12.93;5.85;;;;;;;24.29;56.59;100076.47;8281119;28;20108;-62
2023/07/03 16:32:20;;;;;;;13.27;6.13;;;;;;;24.19;54.46;100080.91;8256387;28;20039;-62
2023/07/03 16:36:22;;;;;;;14.27;6.50;;;;;;;23.94;54.59;100077.50;8277261;28;20057;-62
2023/07/03 16:40:23;;;;;;;14.15;6.65;;;;;;;23.94;55.06;100086.59;8262253;28;20558;-62
2023/07/03 16:44:24;;;;;;;12.45;5.78;;;;;;;24.07;54.75;100082.81;8284485;28;20053;-62
2023/07/03 16:48:25;;;;;;;15.18;5.90;;;;;;;23.90;55.54;100079.88;8288820;28;20136;-61
2023/07/03 16:52:26;;;;;;;15.38;6.40;;;;;;;23.68;55.17;100075.13;8296450;28;20373;-63
2023/07/03 16:56:27;;;;;;;16.83;6.47;;;;;;;23.54;55.71;100087.47;8294068;28;20461;-63
2023/07/03 17:00:28;;;;;;;14.23;6.00;;;;;;;23.50;55.69;100075.19;8295375;28;20399;-63
2023/07/03 17:04:28;;;;;;;11.45;5.97;;;;;;;23.58;56.04;100080.41;8300465;28;20095;-63
2023/07/03 17:08:30;;;;;;;15.93;6.40;;;;;;;23.61;55.84;100068.88;8298507;28;20064;-63
2023/07/03 17:12:30;;;;;;;16.17;6.53;;;;;;;23.63;54.69;100069.50;8300641;28;20045;-63
2023/07/03 17:16:31;;;;;;;17.23;6.55;;;;;;;23.68;55.30;100077.91;8295114;28;20084;-62
2023/07/03 17:20:31;;;;;;;19.88;6.97;;;;;;;23.63;54.75;100066.75;8301012;28;20157;-64
2023/07/03 17:24:32;;;;;;;16.92;5.63;;;;;;;23.46;53.36;100058.28;8300523;28;20621;-64
2023/07/03 17:28:32;;;;;;;15.40;5.18;;;;;;;23.35;53.85;100058.22;8302279;28;20048;-64
2023/07/03 17:32:33;;;;;;;14.88;5.07;;;;;;;23.24;53.75;100059.03;8298440;28;20403;-64
2023/07/03 17:36:33;;;;;;;15.07;5.72;;;;;;;23.18;53.23;100058.84;8307520;28;20552;-64
2023/07/03 17:40:34;;;;;;;15.43;5.77;;;;;;;23.16;54.29;100050.00;8306192;28;20034;-64
2023/07/03 17:44:34;;;;;;;12.73;5.72;;;;;;;23.20;53.66;100053.94;8308064;28;20273;-64
2023/07/03 17:48:35;;;;;;;21.40;5.77;;;;;;;23.18;53.97;100056.09;8305631;28;20041;-64
2023/07/03 17:52:35;;;;;;;15.93;5.60;;;;;;;23.08;54.99;100049.44;8308078;28;20702;-64
2023/07/03 17:56:36;;;;;;;10.95;5.15;;;;;;;22.96;55.68;100046.63;8307780;28;20576;-64
2023/07/03 18:00:36;;;;;;;11.88;5.00;;;;;;;22.99;54.39;100045.31;8291739;28;20045;-64
2023/07/03 18:04:37;;;;;;;14.40;5.20;;;;;;;22.96;54.39;100041.13;8300507;28;20050;-64
2023/07/03 18:08:38;;;;;;;12.73;5.80;;;;;;;22.93;53.99;100041.59;8298258;28;20056;-64
2023/07/03 18:12:39;;;;;;;12.52;6.65;;;;;;;22.89;54.35;100050.56;8307704;28;20038;-64
2023/07/03 18:16:40;;;;;;;17.55;5.70;;;;;;;22.76;54.58;100042.47;8299344;28;20149;-64
2023/07/03 18:20:40;;;;;;;17.83;5.72;;;;;;;22.65;56.32;100049.56;8297771;28;20057;-64
2023/07/03 18:24:41;;;;;;;14.57;5.85;;;;;;;22.59;55.37;100044.13;8301218;28;20038;-64
2023/07/03 18:28:42;;;;;;;16.52;5.85;;;;;;;22.61;55.64;100048.38;8300029;28;20037;-64
2023/07/03 18:32:42;;;;;;;14.05;5.63;;;;;;;22.54;56.12;100035.72;8299304;28;20125;-64
2023/07/03 18:36:43;;;;;;;17.15;5.90;;;;;;;22.39;56.64;100044.34;8301097;28;20517;-64
2023/07/03 18:40:44;;;;;;;14.60;5.82;;;;;;;22.26;56.78;100047.22;8295854;28;20410;-64